Flight Track Log - Related Links

Times and Time Zones

All times are in EDT time to prevent confusion due to time zone crossing. See the UAL4305 flight status page for this flight to view local times or setup timezone preferences in your user account.

Time Position Orientation Groundspeed Altitude Reporting Facility
EDT Latitude Longitude Course Direction KTS MPH feet Rate Location/Type
Wed 02:00:07 PM 29.9614 -95.3411 90° East 159 183 700  Level Houston Center
Wed 02:00:51 PM 29.9381 -95.3122 133° Southeast 181 208 1,800 1,650 Climbing Houston Center
Wed 02:01:27 PM 29.9139 -95.2794 130° Southeast 229 264 2,900 1,839 Climbing Houston Center
Wed 02:01:53 PM 29.9000 -95.2569 125° Southeast 207 238 3,700 2,000 Climbing Houston Center
Wed 02:02:33 PM 29.8714 -95.2075 124° Southeast 259 298 5,100 1,935 Climbing Houston Center
Wed 02:02:55 PM 29.8700 -95.1831 94° East 255 293 5,700 2,129 Climbing Houston Center
Wed 02:03:00 PM 29.9834 -94.7788 90° East  Level FlightAware Approximate
Wed 02:03:35 PM 29.8733 -95.1133 87° East 291 335 7,300  Level Houston Center
Wed 02:03:57 PM 29.8761 -95.0911 82° East 282 325 7,800 1,869 Climbing Houston Center
Wed 02:04:00 PM 29.9833 -94.6401 90° East  Level FlightAware Approximate
Wed 02:04:36 PM 29.8856 -95.0203 81° East 303 349 9,200  Level Houston Center
Wed 02:04:59 PM 29.8911 -94.9958 75° East 296 341 9,600 1,341 Climbing Houston Center
Wed 02:05:00 PM 29.9834 -94.5015 90° East  Level FlightAware Approximate
Wed 02:06:01 PM 29.9056 -94.8972 80° East 307 353 11,100  Level Houston Center
Wed 02:07:03 PM 29.9247 -94.7714 80° East 328 377 12,400 1,113 Climbing Houston Center
Wed 02:08:05 PM 29.9433 -94.6528 80° East 359 413 13,400 919 Climbing Houston Center
Wed 02:09:07 PM 29.9611 -94.5344 80° East 370 426 14,300 871 Climbing Houston Center
Wed 02:10:09 PM 29.9794 -94.4178 80° East 379 436 15,200 960 Climbing Houston Center
Wed 02:11:12 PM 29.9994 -94.2956 79° East 385 443 16,300 1,008 Climbing Houston Center
Wed 02:12:14 PM 30.0136 -94.1722 82° East 387 445 17,300 1,161 Climbing Houston Center
Wed 02:13:16 PM 30.0317 -94.0225 82° East 392 451 18,700 1,065 Climbing Houston Center
Wed 02:14:18 PM 30.0475 -93.8964 82° East 397 457 19,500 823 Climbing Houston Center
Wed 02:15:20 PM 30.0628 -93.7675 82° East 405 466 20,400 823 Climbing Houston Center
Wed 02:16:22 PM 30.0775 -93.6378 82° East 409 471 21,200 968 Climbing Houston Center
Wed 02:17:24 PM 30.0956 -93.4794 82° East 420 483 22,400 968 Climbing Houston Center
Wed 02:18:26 PM 30.1108 -93.3467 82° East 424 488 23,200 823 Climbing Houston Center
Wed 02:19:28 PM 30.1281 -93.2122 82° East 428 493 24,100 816 Climbing Houston Center
Wed 02:20:31 PM 30.1564 -93.0797 76° East 432 497 24,900 816 Climbing Houston Center
Wed 02:21:33 PM 30.2194 -92.9619 58° Northeast 434 499 25,800 1,065 Climbing Houston Center
Wed 02:22:35 PM 30.2967 -92.8214 58° Northeast 434 499 27,100 1,065 Climbing Houston Center
Wed 02:23:37 PM 30.3606 -92.7053 57° Northeast 432 497 28,000 871 Climbing Houston Center
Wed 02:24:39 PM 30.4233 -92.5897 58° Northeast 428 493 28,900 871 Climbing Houston Center
Wed 02:25:41 PM 30.4858 -92.4719 58° Northeast 428 493 29,800 919 Climbing Houston Center
Wed 02:26:43 PM 30.5483 -92.3564 58° Northeast 426 490 30,800 1,113 Climbing Houston Center
Wed 02:27:45 PM 30.6236 -92.2161 58° Northeast 428 493 32,100 1,065 Climbing Houston Center
Wed 02:28:47 PM 30.6867 -92.0983 58° Northeast 430 495 33,000 435 Climbing Houston Center
Wed 02:29:49 PM 30.7514 -91.9769 58° Northeast 438 504 33,000  Level Houston Center
Wed 02:30:51 PM 30.8194 -91.8511 58° Northeast 452 520 33,000  Level Houston Center
Wed 02:31:53 PM 30.8881 -91.7206 58° Northeast 467 537 33,000  Level Houston Center
Wed 02:32:56 PM 30.9733 -91.5608 58° Northeast 480 552 33,000  Level Houston Center
Wed 02:33:58 PM 31.0442 -91.4283 58° Northeast 483 556 33,000  Level Houston Center
Wed 02:35:00 PM 31.1169 -91.2889 59° Northeast 484 557 33,000  Level Houston Center
Wed 02:36:02 PM 31.1889 -91.1536 58° Northeast 488 562 33,000  Level Houston Center
Wed 02:37:04 PM 31.2581 -91.0178 59° Northeast 486 559 33,000  Level Houston Center
Wed 02:38:06 PM 31.3278 -90.8822 59° Northeast 485 558 33,000  Level Houston Center
Wed 02:39:09 PM 31.4000 -90.7461 58° Northeast 489 563 33,000  Level Houston Center
Wed 02:40:11 PM 31.4839 -90.5819 59° Northeast 490 564 33,000  Level Houston Center
Wed 02:41:13 PM 31.5547 -90.4464 58° Northeast 488 562 33,000  Level Houston Center
Wed 02:42:15 PM 31.6244 -90.3089 59° Northeast 489 563 33,000  Level Houston Center
Wed 02:43:17 PM 31.6947 -90.1711 59° Northeast 491 565 33,000  Level Houston Center
Wed 02:43:44 PM 31.7342 -90.0936 59° Northeast 489 563 33,000  Level Memphis Center
Wed 02:44:44 PM 31.8028 -89.9564 60° Northeast 489 563 33,000  Level Memphis Center
Wed 02:45:44 PM 31.8733 -89.8192 59° Northeast 489 563 33,000  Level Memphis Center
Wed 02:46:44 PM 31.9500 -89.6914 55° Northeast 489 563 33,000  Level Memphis Center
Wed 02:47:44 PM 32.0369 -89.5683 50° Northeast 484 557 33,000  Level Memphis Center
Wed 02:48:44 PM 32.1194 -89.4497 51° Northeast 478 550 33,000  Level Memphis Center
Wed 02:49:44 PM 32.2042 -89.3311 50° Northeast 473 544 33,000  Level Memphis Center
Wed 02:50:44 PM 32.2867 -89.2097 51° Northeast 473 544 33,000  Level Memphis Center
Wed 02:51:44 PM 32.3689 -89.0931 50° Northeast 473 544 33,000  Level Memphis Center
Wed 02:52:44 PM 32.4431 -88.9861 51° Northeast 473 544 33,000  Level Memphis Center
Wed 02:53:44 PM 32.5272 -88.8667 50° Northeast 473 544 33,000  Level Memphis Center
Wed 02:54:44 PM 32.6114 -88.7419 51° Northeast 473 544 33,000  Level Memphis Center
Wed 02:55:44 PM 32.6953 -88.6219 50° Northeast 473 544 33,000  Level Memphis Center
Wed 02:56:44 PM 32.7792 -88.4967 51° Northeast 478 550 33,000  Level Memphis Center
Wed 02:57:44 PM 32.8628 -88.3736 51° Northeast 478 550 33,000 -736 Level Memphis Center
Wed 02:59:27 PM 32.9986 -88.1675 52° Northeast 475 547 31,000 -736 Descending Atlanta Center
Wed 03:00:27 PM 33.0778 -88.0522 51° Northeast 463 533 31,000  Level Atlanta Center
Wed 03:01:27 PM 33.1631 -87.9272 51° Northeast 463 533 31,000  Level Atlanta Center
Wed 03:02:27 PM 33.2442 -87.8042 52° Northeast 463 533 31,000  Level Atlanta Center
Wed 03:03:27 PM 33.3272 -87.6811 51° Northeast 468 539 31,000  Level Atlanta Center
Wed 03:04:27 PM 33.4122 -87.5553 51° Northeast 473 544 31,000  Level Atlanta Center
Wed 03:05:27 PM 33.4928 -87.4314 52° Northeast 473 544 31,000  Level Atlanta Center
Wed 03:06:27 PM 33.5800 -87.3028 51° Northeast 478 550 31,000  Level Atlanta Center
Wed 03:07:27 PM 33.6625 -87.1761 52° Northeast 478 550 31,000  Level Atlanta Center
Wed 03:08:27 PM 33.7450 -87.0517 51° Northeast 478 550 31,000  Level Atlanta Center
Wed 03:09:27 PM 33.8272 -86.9269 52° Northeast 478 550 31,000  Level Atlanta Center
Wed 03:10:27 PM 33.9094 -86.7997 52° Northeast 478 550 31,000  Level Atlanta Center
Wed 03:11:27 PM 33.9917 -86.6719 52° Northeast 478 550 31,000  Level Atlanta Center
Wed 03:12:27 PM 34.0733 -86.5467 52° Northeast 478 550 31,000  Level Atlanta Center
Wed 03:13:27 PM 34.1572 -86.4211 51° Northeast 483 556 31,000  Level Atlanta Center
Wed 03:14:27 PM 34.2411 -86.2928 52° Northeast 483 556 31,000  Level Atlanta Center
Wed 03:15:27 PM 34.3228 -86.1642 52° Northeast 483 556 31,000  Level Atlanta Center
Wed 03:16:27 PM 34.4064 -86.0378 51° Northeast 483 556 31,000  Level Atlanta Center
Wed 03:17:27 PM 34.4856 -85.9061 54° Northeast 483 556 31,000  Level Atlanta Center
Wed 03:18:27 PM 34.5667 -85.7819 52° Northeast 478 550 31,000  Level Atlanta Center
Wed 03:19:27 PM 34.6478 -85.6522 53° Northeast 478 550 31,000  Level Atlanta Center
Wed 03:20:27 PM 34.7286 -85.5250 52° Northeast 483 556 31,000 -700 Level Atlanta Center
Wed 03:21:27 PM 34.8094 -85.3947 53° Northeast 483 556 29,600 -1,400 Descending Atlanta Center
Wed 03:22:27 PM 34.8900 -85.2694 52° Northeast 477 549 28,200 -1,450 Descending Atlanta Center
Wed 03:23:27 PM 34.9683 -85.1464 52° Northeast 472 543 26,700 -1,450 Descending Atlanta Center
Wed 03:24:27 PM 35.0572 -85.0258 48° Northeast 472 543 25,300 -1,250 Descending Atlanta Center
Wed 03:25:27 PM 35.1497 -84.9075 46° Northeast 472 543 24,200 -1,100 Descending Atlanta Center
Wed 03:26:27 PM 35.2361 -84.7939 47° Northeast 466 536 23,100 -1,250 Descending Atlanta Center
Wed 03:27:27 PM 35.3222 -84.6778 48° Northeast 460 529 21,700 -1,650 Descending Atlanta Center
Wed 03:28:27 PM 35.4064 -84.5661 47° Northeast 455 524 19,800 -2,200 Descending Atlanta Center
Wed 03:29:27 PM 35.4881 -84.4597 47° Northeast 443 510 17,300 -2,750 Descending Atlanta Center
Wed 03:30:27 PM 35.5719 -84.3450 48° Northeast 422 486 14,300 -2,000 Descending Atlanta Center
Wed 03:31:27 PM 35.6514 -84.2686 38° Northeast 388 447 13,300 -1,350 Descending Atlanta Center
Wed 03:32:27 PM 35.7222 -84.2000 38° Northeast 350 403 11,600 -2,200 Descending Atlanta Center
Wed 03:33:27 PM 35.7892 -84.1333 39° Northeast 327 376 8,900 -2,250 Descending Atlanta Center
Wed 03:34:27 PM 35.8539 -84.0644 41° Northeast 307 353 7,100 -2,000 Descending Atlanta Center
Wed 03:35:27 PM 35.9186 -84.0028 38° Northeast 295 339 4,900 -2,100 Descending Atlanta Center
Wed 03:36:27 PM 35.9164 -83.9233 92° East 215 247 2,900 -1,100 Descending Atlanta Center
Wed 03:37:27 PM 35.8725 -83.9106 167° South 127 146 2,700 -500 Descending Atlanta Center
Wed 03:38:27 PM 35.8475 -83.9492 231° Southwest 86 99 1,900 -800 Descending Atlanta Center

Login

Don't have an account? Register now (free) for customized features, flight alerts, and more!